Time;durP1;ratioP1;P1;durP2;ratioP2;P2;SDS_P1;SDS_P2;PMS_P1;PMS_P2;Temp;Humidity;BMP_temperature;BMP_pressure;BME280_temperature;BME280_humidity;BME280_pressure;Samples;Min_cycle;Max_cycle;Signal;HPM_P1;HPM_P2
2023/10/06 00:00:44;;;;;;;17.50;11.00;;;13.90;94.00;;;;;;4992896;28;20174;-89
2023/10/06 00:03:16;;;;;;;20.50;12.47;;;13.90;93.90;;;;;;4993981;28;20170;-90
2023/10/06 00:05:42;;;;;;;21.70;12.30;;;14.00;93.90;;;;;;4992804;28;20194;-89
2023/10/06 00:08:10;;;;;;;15.60;11.03;;;14.00;93.80;;;;;;4992898;28;20174;-90
2023/10/06 00:10:44;;;;;;;23.23;11.67;;;14.00;93.70;;;;;;4993988;28;20170;-90
2023/10/06 00:13:12;;;;;;;16.00;11.47;;;14.00;93.60;;;;;;4992780;28;20178;-89
2023/10/06 00:15:38;;;;;;;19.97;12.60;;;14.00;93.50;;;;;;4993915;28;20194;-89
2023/10/06 00:18:07;;;;;;;18.37;12.47;;;14.00;93.50;;;;;;4992635;28;20728;-90
2023/10/06 00:21:13;;;;;;;16.97;12.70;;;14.00;93.40;;;;;;4992630;28;20224;-90
2023/10/06 00:23:42;;;;;;;22.77;13.13;;;13.90;93.40;;;;;;4993962;28;20185;-89
2023/10/06 00:26:11;;;;;;;23.07;13.23;;;13.90;93.40;;;;;;4992634;28;20601;-91
2023/10/06 00:28:39;;;;;;;20.67;13.00;;;13.90;93.40;;;;;;4993679;28;20204;-90
2023/10/06 00:31:08;;;;;;;20.77;13.20;;;13.90;93.40;;;;;;4992414;28;20178;-90
2023/10/06 00:33:37;;;;;;;21.57;13.70;;;13.90;93.30;;;;;;4992490;28;20178;-90
2023/10/06 00:36:14;;;;;;;25.87;14.17;;;13.90;93.30;;;;;;4993717;28;20697;-89
2023/10/06 00:38:50;;;;;;;20.63;13.63;;;13.90;93.30;;;;;;4992383;28;20225;-90
2023/10/06 00:41:17;;;;;;;22.80;14.07;;;13.90;93.20;;;;;;4992775;28;20712;-89
2023/10/06 00:43:43;;;;;;;22.50;14.00;;;13.90;93.30;;;;;;4992714;28;20170;-90
2023/10/06 00:46:18;;;;;;;24.23;14.67;;;13.90;93.20;;;;;;4993615;28;20205;-90
2023/10/06 00:48:45;;;;;;;23.00;14.30;;;14.00;93.20;;;;;;4993721;28;20173;-90
2023/10/06 00:51:19;;;;;;;22.10;13.90;;;14.00;93.10;;;;;;4992457;28;20666;-89
2023/10/06 00:53:52;;;;;;;24.43;14.57;;;14.00;93.10;;;;;;4992349;28;20170;-89
2023/10/06 00:56:23;;;;;;;26.43;15.20;;;14.00;93.10;;;;;;4993188;28;20177;-90
2023/10/06 00:58:48;;;;;;;24.50;14.40;;;13.90;93.00;;;;;;4997335;28;20666;-90
2023/10/06 01:01:17;;;;;;;28.50;14.83;;;13.90;92.90;;;;;;4996079;28;20181;-91
2023/10/06 01:03:44;;;;;;;19.70;14.57;;;13.90;92.90;;;;;;4995972;28;20265;-89
2023/10/06 01:06:15;;;;;;;24.37;14.63;;;13.90;92.80;;;;;;4997176;28;20170;-90
2023/10/06 01:08:48;;;;;;;30.33;14.90;;;13.90;92.80;;;;;;4995880;28;20181;-89
2023/10/06 01:11:19;;;;;;;23.27;14.40;;;13.90;92.80;;;;;;4996971;28;20733;-89
2023/10/06 01:13:58;;;;;;;20.40;14.83;;;13.90;92.90;;;;;;4995784;28;20252;-90
2023/10/06 01:16:31;;;;;;;20.27;13.93;;;13.90;92.90;;;;;;4996599;28;20264;-90
2023/10/06 01:19:14;;;;;;;26.03;15.00;;;13.80;93.00;;;;;;4996797;28;20193;-90
2023/10/06 01:21:40;;;;;;;25.90;14.70;;;13.90;93.00;;;;;;4997251;28;20162;-90
2023/10/06 01:24:12;;;;;;;23.80;15.27;;;13.90;93.00;;;;;;4995545;28;20257;-89
2023/10/06 01:26:41;;;;;;;28.20;14.57;;;13.90;92.90;;;;;;4997255;28;20709;-90
2023/10/06 01:29:10;;;;;;;27.93;15.27;;;13.90;92.90;;;;;;4996669;28;20178;-89
2023/10/06 01:31:40;;;;;;;32.97;15.43;;;14.00;92.80;;;;;;4996253;28;20190;-90
2023/10/06 01:34:08;;;;;;;21.53;14.37;;;13.90;92.80;;;;;;4995415;28;20210;-90
2023/10/06 01:36:35;;;;;;;23.50;16.10;;;14.00;92.70;;;;;;4995638;28;20650;-89
2023/10/06 01:39:16;;;;;;;27.00;16.43;;;14.00;92.60;;;;;;4995391;28;20208;-89
2023/10/06 01:41:41;;;;;;;28.53;15.70;;;14.00;92.50;;;;;;4995653;28;20194;-90
2023/10/06 01:44:12;;;;;;;21.13;14.93;;;14.00;92.50;;;;;;4995784;28;20727;-89
2023/10/06 01:46:38;;;;;;;23.10;15.90;;;14.10;92.30;;;;;;4996519;28;20610;-89
2023/10/06 01:49:04;;;;;;;25.03;16.70;;;14.00;92.30;;;;;;4996463;28;20174;-89
2023/10/06 01:51:35;;;;;;;22.97;16.03;;;14.00;92.30;;;;;;4995088;28;20276;-90
2023/10/06 01:54:02;;;;;;;26.40;15.67;;;14.00;92.30;;;;;;4996195;28;20189;-89
2023/10/06 01:56:31;;;;;;;22.53;15.17;;;14.00;92.30;;;;;;4995028;28;20193;-89
2023/10/06 01:58:57;;;;;;;21.40;15.20;;;14.00;92.30;;;;;;4996124;28;20577;-91
2023/10/06 02:01:23;;;;;;;24.30;15.40;;;14.00;92.30;;;;;;4995058;28;20657;-90
2023/10/06 02:03:48;;;;;;;34.50;17.57;;;14.00;92.20;;;;;;4995869;28;20228;-87
2023/10/06 02:06:16;;;;;;;20.80;18.50;;;14.00;92.30;;;;;;4994935;28;20558;-89
2023/10/06 02:08:52;;;;;;;26.20;19.30;;;13.90;92.30;;;;;;4995128;28;20261;-90
2023/10/06 02:11:21;;;;;;;24.77;19.40;;;14.00;92.30;;;;;;4996055;28;20537;-90
2023/10/06 02:13:47;;;;;;;21.10;18.93;;;13.90;92.20;;;;;;4995925;28;20265;-90
2023/10/06 02:16:12;;;;;;;24.03;19.57;;;13.90;92.10;;;;;;4995926;28;20214;-89
2023/10/06 02:18:39;;;;;;;24.43;18.80;;;13.90;92.20;;;;;;4995730;28;20229;-89
2023/10/06 02:21:11;;;;;;;22.03;15.50;;;13.90;92.00;;;;;;4994886;28;20597;-89
2023/10/06 02:23:38;;;;;;;22.90;14.57;;;13.90;91.90;;;;;;4994612;28;20170;-88
2023/10/06 02:26:08;;;;;;;19.60;15.53;;;13.80;91.80;;;;;;4995766;28;20178;-90
2023/10/06 02:28:34;;;;;;;25.00;15.23;;;13.80;91.80;;;;;;4994504;28;20672;-89
2023/10/06 02:31:05;;;;;;;23.03;14.43;;;13.80;91.70;;;;;;4994560;28;20190;-89
2023/10/06 02:33:36;;;;;;;23.73;14.37;;;13.80;91.60;;;;;;4995538;28;20162;-88
2023/10/06 02:36:13;;;;;;;22.80;15.70;;;13.80;91.60;;;;;;4995539;28;20158;-91
2023/10/06 02:38:46;;;;;;;22.20;15.07;;;13.80;91.60;;;;;;4994572;28;20193;-89
2023/10/06 02:41:11;;;;;;;17.57;13.57;;;13.80;91.50;;;;;;4994059;28;20549;-89
2023/10/06 02:43:40;;;;;;;25.23;14.87;;;13.80;91.50;;;;;;4994078;28;20205;-87
2023/10/06 02:46:08;;;;;;;23.87;14.07;;;13.80;91.30;;;;;;4994110;28;20174;-89
2023/10/06 02:48:34;;;;;;;18.93;13.27;;;13.80;91.30;;;;;;4995244;28;20170;-89
2023/10/06 02:51:01;;;;;;;19.83;13.87;;;13.80;91.10;;;;;;4994068;28;20650;-90
2023/10/06 02:53:29;;;;;;;23.00;15.20;;;13.80;91.00;;;;;;4993930;28;20174;-89
2023/10/06 02:56:05;;;;;;;16.37;13.03;;;13.80;90.90;;;;;;4993855;28;20205;-89
2023/10/06 02:58:33;;;;;;;19.87;13.10;;;13.90;90.60;;;;;;4995319;28;20216;-89
2023/10/06 03:00:59;;;;;;;18.97;12.47;;;13.90;90.60;;;;;;4994165;28;20320;-89
2023/10/06 03:03:27;;;;;;;24.03;14.03;;;13.90;90.60;;;;;;4993896;28;20222;-88
2023/10/06 03:05:54;;;;;;;23.50;14.07;;;13.80;90.60;;;;;;4993646;28;20194;-89
2023/10/06 03:08:27;;;;;;;18.57;12.93;;;13.80;90.50;;;;;;4994868;28;20174;-88
2023/10/06 03:10:53;;;;;;;25.87;15.40;;;13.90;90.50;;;;;;4994858;28;20654;-89
2023/10/06 03:13:29;;;;;;;21.23;13.07;;;13.80;90.30;;;;;;4993585;28;20178;-89
2023/10/06 03:15:55;;;;;;;20.50;14.03;;;13.90;90.20;;;;;;4994650;28;20244;-89
2023/10/06 03:18:20;;;;;;;21.23;14.20;;;13.90;90.10;;;;;;4994616;28;20197;-89
2023/10/06 03:20:47;;;;;;;22.10;15.53;;;13.80;90.20;;;;;;4993497;28;20174;-89
2023/10/06 03:23:58;;;;;;;25.13;14.80;;;13.80;90.30;;;;;;4993624;28;20664;-90
2023/10/06 03:26:29;;;;;;;20.90;14.33;;;13.80;90.10;;;;;;4994446;28;20280;-89
2023/10/06 03:29:01;;;;;;;25.27;14.90;;;13.80;90.10;;;;;;4993466;28;20177;-89
2023/10/06 03:31:44;;;;;;;21.53;13.27;;;13.80;90.20;;;;;;4994560;28;20254;-88
2023/10/06 03:34:15;;;;;;;22.33;14.80;;;13.80;90.30;;;;;;4994566;28;20201;-89
2023/10/06 03:36:46;;;;;;;18.27;13.47;;;13.80;90.40;;;;;;4994037;28;20175;-89
2023/10/06 03:39:13;;;;;;;19.63;13.97;;;13.80;90.30;;;;;;4994265;28;20213;-89
2023/10/06 03:41:41;;;;;;;21.17;14.70;;;13.80;90.40;;;;;;4994206;28;20265;-89
2023/10/06 03:44:06;;;;;;;27.57;14.97;;;13.80;90.40;;;;;;4994268;28;20189;-89
2023/10/06 03:46:38;;;;;;;19.63;14.80;;;13.80;90.50;;;;;;4993011;28;20217;-89
2023/10/06 03:49:07;;;;;;;21.87;14.53;;;13.80;90.50;;;;;;4994461;28;20179;-89
2023/10/06 03:51:38;;;;;;;23.23;15.10;;;13.80;90.20;;;;;;4993088;28;20178;-89
2023/10/06 03:54:04;;;;;;;20.33;14.33;;;13.80;90.20;;;;;;4994249;28;20189;-89
2023/10/06 03:56:33;;;;;;;29.17;16.33;;;13.80;90.10;;;;;;4992923;28;20277;-89
2023/10/06 03:59:00;;;;;;;23.27;15.73;;;13.80;90.00;;;;;;4994038;28;20202;-89
2023/10/06 04:01:31;;;;;;;26.03;17.23;;;13.80;90.00;;;;;;4994301;28;20245;-89
2023/10/06 04:04:00;;;;;;;24.87;18.73;;;13.80;90.20;;;;;;4992779;28;20198;-89
2023/10/06 04:06:35;;;;;;;27.57;22.20;;;13.70;90.30;;;;;;4993947;28;20221;-89
2023/10/06 04:09:00;;;;;;;25.80;21.33;;;13.80;90.20;;;;;;4994061;28;20248;-89
2023/10/06 04:11:29;;;;;;;27.23;21.80;;;13.80;90.20;;;;;;4992757;28;20209;-89
2023/10/06 04:13:56;;;;;;;27.60;21.17;;;13.80;90.30;;;;;;4994125;28;20197;-89
2023/10/06 04:16:23;;;;;;;23.47;17.10;;;13.80;90.20;;;;;;4992683;28;20231;-89
2023/10/06 04:18:49;;;;;;;21.23;17.00;;;13.80;90.30;;;;;;4992607;28;20202;-89
2023/10/06 04:21:15;;;;;;;26.53;16.67;;;13.80;90.20;;;;;;4993864;28;20181;-88
2023/10/06 04:23:43;;;;;;;22.40;16.27;;;13.70;90.50;;;;;;4992647;28;20185;-88
2023/10/06 04:26:10;;;;;;;29.90;18.23;;;13.70;90.40;;;;;;4992617;28;20177;-88
2023/10/06 04:28:36;;;;;;;27.67;16.37;;;13.70;90.70;;;;;;4992824;28;20260;-89
2023/10/06 04:31:01;;;;;;;28.83;19.13;;;13.70;90.60;;;;;;4994534;28;20209;-89
2023/10/06 04:33:28;;;;;;;25.53;17.33;;;13.70;90.80;;;;;;4996961;28;20185;-90
2023/10/06 04:36:11;;;;;;;26.13;18.73;;;13.60;91.00;;;;;;4997661;28;20200;-89
2023/10/06 04:38:39;;;;;;;28.67;18.97;;;13.60;91.20;;;;;;4997275;28;20665;-89
2023/10/06 04:41:09;;;;;;;29.30;18.20;;;13.60;91.20;;;;;;4997591;28;20186;-89
2023/10/06 04:43:45;;;;;;;28.50;18.93;;;13.60;91.10;;;;;;4996451;28;20563;-88
2023/10/06 04:46:14;;;;;;;24.07;18.53;;;13.70;91.00;;;;;;4996405;28;20242;-88
2023/10/06 04:48:40;;;;;;;27.13;23.03;;;13.70;90.90;;;;;;4997528;28;20674;-89
2023/10/06 04:51:06;;;;;;;28.70;22.83;;;13.60;90.80;;;;;;4996303;28;20196;-88
2023/10/06 04:53:35;;;;;;;31.40;23.47;;;13.70;90.70;;;;;;4996325;28;20178;-89
2023/10/06 04:56:05;;;;;;;22.50;17.77;;;13.70;90.60;;;;;;4996240;28;20228;-88
2023/10/06 04:58:31;;;;;;;22.37;16.80;;;13.70;90.60;;;;;;4996076;28;20245;-88
2023/10/06 05:01:00;;;;;;;26.87;18.23;;;13.70;90.60;;;;;;4996142;28;20181;-89
2023/10/06 05:03:26;;;;;;;28.23;21.53;;;13.70;90.60;;;;;;4996298;28;20178;-89
2023/10/06 05:05:55;;;;;;;24.33;21.87;;;13.70;90.50;;;;;;4996064;28;20210;-89
2023/10/06 05:08:21;;;;;;;23.43;17.10;;;13.70;90.20;;;;;;4995964;28;20209;-89
2023/10/06 05:10:49;;;;;;;21.97;16.33;;;13.70;90.10;;;;;;4997463;28;20265;-89
2023/10/06 05:13:16;;;;;;;25.90;20.40;;;13.80;90.20;;;;;;4995951;28;20190;-89
2023/10/06 05:15:42;;;;;;;25.57;21.07;;;13.70;90.20;;;;;;4996903;28;20194;-89
2023/10/06 05:18:07;;;;;;;27.17;20.77;;;13.70;90.10;;;;;;4995688;28;20213;-89
2023/10/06 05:20:35;;;;;;;27.53;16.53;;;13.70;90.10;;;;;;4995782;28;20185;-89
2023/10/06 05:23:07;;;;;;;21.40;14.60;;;13.70;90.20;;;;;;4996975;28;20702;-89
2023/10/06 05:25:36;;;;;;;23.67;19.93;;;13.70;90.20;;;;;;4997050;28;20221;-89
2023/10/06 05:28:03;;;;;;;25.70;20.10;;;13.70;90.20;;;;;;4996715;28;20189;-89
2023/10/06 05:30:30;;;;;;;25.57;18.33;;;13.70;90.30;;;;;;4996817;28;20264;-89
2023/10/06 05:32:58;;;;;;;22.93;15.60;;;13.70;90.00;;;;;;4995892;28;20264;-88
2023/10/06 05:35:27;;;;;;;18.63;14.50;;;13.70;90.00;;;;;;4995527;28;20694;-88
2023/10/06 05:37:53;;;;;;;20.63;13.67;;;13.70;89.90;;;;;;4995379;28;20689;-89
2023/10/06 05:40:20;;;;;;;21.63;14.23;;;13.70;89.90;;;;;;4995650;28;20186;-88
2023/10/06 05:42:49;;;;;;;17.17;13.27;;;13.70;89.80;;;;;;4994296;28;20166;-89
2023/10/06 05:45:18;;;;;;;18.90;13.50;;;13.70;90.00;;;;;;4996649;28;20190;-89
2023/10/06 05:47:50;;;;;;;18.00;13.07;;;13.70;89.90;;;;;;4996446;28;20717;-88
2023/10/06 05:50:29;;;;;;;19.20;13.90;;;13.80;89.80;;;;;;4995586;28;20167;-90
2023/10/06 05:53:01;;;;;;;16.07;12.77;;;13.80;89.70;;;;;;4995887;28;20212;-89
2023/10/06 05:55:35;;;;;;;24.70;12.90;;;13.80;89.90;;;;;;4997253;28;20221;-92
2023/10/06 05:58:03;;;;;;;22.37;13.43;;;13.80;89.90;;;;;;4996041;28;20277;-90
2023/10/06 06:00:30;;;;;;;19.87;13.30;;;13.70;90.00;;;;;;4995234;28;20175;-90
2023/10/06 06:03:10;;;;;;;20.03;12.43;;;13.70;90.20;;;;;;4996184;28;20711;-89
2023/10/06 06:05:38;;;;;;;15.77;13.03;;;13.70;90.20;;;;;;4994953;28;20579;-89
2023/10/06 06:08:05;;;;;;;24.13;12.97;;;13.70;90.30;;;;;;4995052;28;20178;-90
2023/10/06 06:10:30;;;;;;;16.23;12.77;;;13.70;90.30;;;;;;4994816;28;20188;-89
2023/10/06 06:12:56;;;;;;;20.83;12.53;;;13.70;90.50;;;;;;4994881;28;20181;-89
2023/10/06 06:15:22;;;;;;;15.73;11.20;;;13.70;90.50;;;;;;4996427;28;20632;-89
2023/10/06 06:17:49;;;;;;;16.17;12.50;;;13.70;90.70;;;;;;4994835;28;20233;-89
2023/10/06 06:20:18;;;;;;;21.67;13.40;;;13.60;90.80;;;;;;4995890;28;20170;-88
2023/10/06 06:22:54;;;;;;;24.00;13.73;;;13.60;90.70;;;;;;4994798;28;20185;-88
2023/10/06 06:25:22;;;;;;;18.47;12.57;;;13.60;90.80;;;;;;4994679;28;20205;-87
2023/10/06 06:27:48;;;;;;;16.47;12.80;;;13.60;90.50;;;;;;4996068;28;20171;-88
2023/10/06 06:30:18;;;;;;;16.50;12.70;;;13.60;90.30;;;;;;4994678;28;20201;-90
2023/10/06 06:32:48;;;;;;;14.83;11.77;;;13.60;90.20;;;;;;4994806;28;20168;-91
2023/10/06 06:35:14;;;;;;;18.33;11.57;;;13.70;90.30;;;;;;4995784;28;20186;-92
2023/10/06 06:37:43;;;;;;;17.60;12.60;;;13.70;90.30;;;;;;4996429;28;20629;-90
2023/10/06 06:40:13;;;;;;;17.43;12.10;;;13.70;90.20;;;;;;4994495;28;20245;-89
2023/10/06 06:42:40;;;;;;;17.43;12.23;;;13.70;90.30;;;;;;4994668;28;20170;-90
2023/10/06 06:45:06;;;;;;;22.10;12.87;;;13.70;90.40;;;;;;4996074;28;20293;-88
2023/10/06 06:47:32;;;;;;;23.83;12.13;;;13.60;90.20;;;;;;4994376;28;20627;-88
2023/10/06 06:50:00;;;;;;;24.10;13.00;;;13.60;90.10;;;;;;4994195;28;20178;-88
2023/10/06 06:52:26;;;;;;;20.70;12.70;;;13.60;90.40;;;;;;4994332;28;20174;-88
2023/10/06 06:54:51;;;;;;;15.60;12.23;;;13.50;90.60;;;;;;4993816;28;20190;-88
2023/10/06 06:57:17;;;;;;;15.30;12.10;;;13.50;90.90;;;;;;4995355;28;20174;-89
2023/10/06 06:59:44;;;;;;;18.20;12.20;;;13.50;91.00;;;;;;4994135;28;20206;-89
2023/10/06 07:02:10;;;;;;;20.53;12.47;;;13.50;91.10;;;;;;4995378;28;20171;-89
2023/10/06 07:04:36;;;;;;;22.63;12.70;;;13.50;91.40;;;;;;4994211;28;20252;-89
2023/10/06 07:07:02;;;;;;;16.33;12.50;;;13.50;91.50;;;;;;4993912;28;20259;-90
2023/10/06 07:09:27;;;;;;;18.53;12.20;;;13.50;91.50;;;;;;4995087;28;20649;-91
2023/10/06 07:11:54;;;;;;;15.47;11.53;;;13.50;91.50;;;;;;4995208;28;20190;-88
2023/10/06 07:14:21;;;;;;;18.37;12.83;;;13.40;91.30;;;;;;4993931;28;20209;-89
2023/10/06 07:16:47;;;;;;;19.47;12.27;;;13.40;91.30;;;;;;4994049;28;20216;-89
2023/10/06 07:19:17;;;;;;;18.67;12.07;;;13.40;91.30;;;;;;4993847;28;20214;-89
2023/10/06 07:21:42;;;;;;;17.07;12.43;;;13.40;91.50;;;;;;4993902;28;20201;-89
2023/10/06 07:24:10;;;;;;;19.47;12.17;;;13.40;91.60;;;;;;4993745;28;20197;-89
2023/10/06 07:26:36;;;;;;;18.20;12.50;;;13.40;91.70;;;;;;4994679;28;20185;-89
2023/10/06 07:29:05;;;;;;;20.20;13.50;;;13.30;91.60;;;;;;4994664;28;20184;-89
2023/10/06 07:31:31;;;;;;;20.20;12.13;;;13.40;91.70;;;;;;4994566;28;20257;-89
2023/10/06 07:34:02;;;;;;;15.80;11.63;;;13.40;91.70;;;;;;4993225;28;20244;-89
2023/10/06 07:36:28;;;;;;;19.57;12.33;;;13.40;91.70;;;;;;4993342;28;20240;-90
2023/10/06 07:38:54;;;;;;;27.63;14.20;;;13.40;91.70;;;;;;4993212;28;20689;-89
2023/10/06 07:41:23;;;;;;;21.70;12.73;;;13.40;91.60;;;;;;4994327;28;20240;-89
2023/10/06 07:43:49;;;;;;;22.33;12.17;;;13.40;91.60;;;;;;4993264;28;20177;-88
2023/10/06 07:46:16;;;;;;;16.30;11.20;;;13.50;91.70;;;;;;4994591;28;20181;-89
2023/10/06 07:48:42;;;;;;;20.57;13.87;;;13.40;91.50;;;;;;4994604;28;20170;-89
2023/10/06 07:51:08;;;;;;;19.90;12.93;;;13.50;91.40;;;;;;4993151;28;20269;-90
2023/10/06 07:53:38;;;;;;;17.90;11.60;;;13.50;91.40;;;;;;4993418;28;20736;-88
2023/10/06 07:56:08;;;;;;;19.23;12.17;;;13.60;91.20;;;;;;4994200;28;20162;-90
2023/10/06 07:58:41;;;;;;;22.87;12.43;;;13.70;91.20;;;;;;4994261;28;20206;-90
2023/10/06 08:01:08;;;;;;;15.60;11.40;;;13.70;91.10;;;;;;4993282;28;20189;-89
2023/10/06 08:03:41;;;;;;;21.57;11.73;;;13.80;91.00;;;;;;4993402;28;20526;-88
2023/10/06 08:06:08;;;;;;;21.73;12.07;;;13.70;90.50;;;;;;4992652;28;20166;-88
2023/10/06 08:08:35;;;;;;;21.40;11.70;;;13.80;90.40;;;;;;4994340;28;20178;-89
2023/10/06 08:11:02;;;;;;;18.60;12.07;;;13.80;90.40;;;;;;4993016;28;20221;-89
2023/10/06 08:13:30;;;;;;;20.10;12.37;;;13.80;90.50;;;;;;4994140;28;20258;-89
2023/10/06 08:15:57;;;;;;;16.13;11.27;;;13.80;90.40;;;;;;4994105;28;20189;-88
2023/10/06 08:18:22;;;;;;;17.17;12.03;;;13.80;90.50;;;;;;4992898;28;20704;-90
2023/10/06 08:20:48;;;;;;;22.27;12.57;;;13.90;90.50;;;;;;4994093;28;20174;-89
2023/10/06 08:23:15;;;;;;;16.93;10.40;;;13.80;90.60;;;;;;4994353;28;20240;-89
2023/10/06 08:25:41;;;;;;;17.10;15.40;;;13.90;90.60;;;;;;4994187;28;20204;-90
2023/10/06 08:28:07;;;;;;;19.47;16.20;;;13.90;90.80;;;;;;4994250;28;20170;-90
2023/10/06 08:30:32;;;;;;;19.57;15.80;;;13.90;90.90;;;;;;4994294;28;20178;-90
2023/10/06 08:32:59;;;;;;;23.00;15.47;;;13.90;90.70;;;;;;4993105;28;20184;-90
2023/10/06 08:35:26;;;;;;;22.07;15.93;;;13.90;90.70;;;;;;4993451;28;20209;-90
2023/10/06 08:37:52;;;;;;;25.23;16.47;;;14.00;91.00;;;;;;4994306;28;20205;-91
2023/10/06 08:40:22;;;;;;;20.07;13.80;;;14.00;90.90;;;;;;4995828;28;20285;-90
2023/10/06 08:42:59;;;;;;;27.60;12.77;;;14.10;91.10;;;;;;4998122;28;20172;-90
2023/10/06 08:45:27;;;;;;;19.70;12.70;;;14.20;90.90;;;;;;4995595;28;20280;-91
2023/10/06 08:47:59;;;;;;;24.93;13.43;;;14.20;90.80;;;;;;4995863;28;20162;-89
2023/10/06 08:50:29;;;;;;;18.07;12.13;;;14.20;90.60;;;;;;4999635;28;20235;-90
2023/10/06 08:52:56;;;;;;;15.70;11.97;;;14.20;90.40;;;;;;5001775;28;20241;-91
2023/10/06 08:55:23;;;;;;;25.80;13.73;;;14.20;90.60;;;;;;5000596;28;20194;-91
2023/10/06 08:57:50;;;;;;;14.97;12.60;;;14.20;90.40;;;;;;5000782;28;20178;-91
2023/10/06 09:00:24;;;;;;;20.45;12.30;;;14.20;90.60;;;;;;4999806;28;20185;-92
2023/10/06 09:02:51;;;;;;;20.90;12.53;;;14.20;90.60;;;;;;5002658;28;20167;-90
2023/10/06 09:05:17;;;;;;;17.27;11.47;;;14.20;90.70;;;;;;5001174;28;20748;-92
2023/10/06 09:08:04;;;;;;;23.15;11.95;;;14.20;90.70;;;;;;5002755;28;20182;-92
2023/10/06 09:10:34;;;;;;;18.20;12.13;;;14.20;90.40;;;;;;5000527;28;20163;-90
2023/10/06 09:13:02;;;;;;;21.97;12.03;;;14.20;90.40;;;;;;4999615;28;20221;-91
2023/10/06 09:15:29;;;;;;;19.97;12.10;;;14.30;90.70;;;;;;4999052;28;20204;-91
2023/10/06 09:17:56;;;;;;;21.40;12.20;;;14.30;90.70;;;;;;5007117;28;20201;-92
2023/10/06 09:20:36;;;;;;;16.50;10.93;;;14.30;90.60;;;;;;5009180;28;20233;-91
2023/10/06 09:23:03;;;;;;;18.30;11.80;;;14.30;90.50;;;;;;5002138;28;20166;-91
2023/10/06 09:25:46;;;;;;;15.53;11.30;;;14.40;90.40;;;;;;5003723;28;20194;-90
2023/10/06 09:28:13;;;;;;;16.00;11.23;;;14.40;90.30;;;;;;5004730;28;20177;-91
2023/10/06 09:31:05;;;;;;;16.23;11.87;;;14.40;90.30;;;;;;5003594;28;20191;-91
2023/10/06 09:33:37;;;;;;;18.00;11.67;;;14.40;90.20;;;;;;5002215;28;20197;-91
2023/10/06 09:36:17;;;;;;;17.80;12.07;;;14.40;90.30;;;;;;5002839;28;20181;-90
2023/10/06 09:38:46;;;;;;;17.27;12.43;;;14.50;90.50;;;;;;5002632;28;20221;-93
2023/10/06 09:41:13;;;;;;;14.27;11.20;;;14.40;90.60;;;;;;5003824;28;20197;-91
2023/10/06 09:43:40;;;;;;;21.42;11.85;;;14.40;90.70;;;;;;5002464;28;20182;-91
2023/10/06 09:46:11;;;;;;;15.75;10.95;;;14.40;90.90;;;;;;5002577;28;20221;-91
2023/10/06 09:48:38;;;;;;;19.67;10.85;;;14.40;91.40;;;;;;5002169;28;20557;-91
2023/10/06 09:51:06;;;;;;;17.20;11.13;;;14.30;91.50;;;;;;5004481;28;20186;-91
2023/10/06 09:53:37;;;;;;;16.23;10.88;;;14.30;91.70;;;;;;5008518;28;20174;-91
2023/10/06 09:56:06;;;;;;;14.02;10.90;;;14.30;91.90;;;;;;5008953;28;20595;-91
2023/10/06 09:58:32;;;;;;;14.97;11.03;;;14.30;92.20;;;;;;5010530;28;20210;-92
2023/10/06 10:01:00;;;;;;;15.77;11.68;;;14.30;92.60;;;;;;5005460;28;20177;-92
2023/10/06 10:03:27;;;;;;;15.90;12.00;;;14.30;92.70;;;;;;5005303;28;20182;-92
2023/10/06 10:05:53;;;;;;;16.02;12.00;;;14.30;93.00;;;;;;5004992;28;20221;-92
2023/10/06 10:08:22;;;;;;;16.40;12.52;;;14.30;93.30;;;;;;5006196;28;20277;-91
2023/10/06 10:10:52;;;;;;;17.75;14.77;;;14.20;93.40;;;;;;5002475;28;20182;-91
2023/10/06 10:13:43;;;;;;;16.67;12.25;;;14.20;93.50;;;;;;5007616;28;20169;-92
2023/10/06 10:16:49;;;;;;;16.33;11.87;;;14.20;93.60;;;;;;5008078;28;20201;-92
2023/10/06 10:19:18;;;;;;;15.30;12.90;;;14.20;93.60;;;;;;5011412;28;20197;-92
2023/10/06 10:21:44;;;;;;;17.58;13.88;;;14.20;93.80;;;;;;5015106;28;20190;-93
2023/10/06 10:24:13;;;;;;;16.13;14.02;;;14.20;93.80;;;;;;5013502;28;20273;-92
2023/10/06 10:26:39;;;;;;;20.80;14.50;;;14.20;93.70;;;;;;5014827;28;20176;-93
2023/10/06 10:29:17;;;;;;;19.07;16.30;;;14.20;93.70;;;;;;5009409;28;20181;-92
2023/10/06 10:31:46;;;;;;;19.50;17.03;;;14.30;93.80;;;;;;5005015;28;20178;-91
2023/10/06 10:34:20;;;;;;;23.93;20.40;;;14.30;93.80;;;;;;5004961;28;20194;-92
2023/10/06 10:37:05;;;;;;;26.45;19.73;;;14.20;93.70;;;;;;5003196;28;20177;-93
2023/10/06 10:39:50;;;;;;;23.63;19.25;;;14.20;93.80;;;;;;4998272;28;20197;-93
2023/10/06 10:42:40;;;;;;;22.93;19.87;;;14.30;93.70;;;;;;5001570;28;20158;-92
2023/10/06 10:45:35;;;;;;;20.23;18.17;;;14.30;93.70;;;;;;4999838;28;20349;-93
2023/10/06 10:48:05;;;;;;;21.00;15.60;;;14.30;93.70;;;;;;5000123;28;20177;-92
2023/10/06 10:50:52;;;;;;;20.80;14.60;;;14.30;93.70;;;;;;5002660;28;20182;-93
2023/10/06 10:53:21;;;;;;;19.27;17.30;;;14.30;93.60;;;;;;5004505;28;20676;-93
2023/10/06 10:55:50;;;;;;;21.75;16.60;;;14.30;93.50;;;;;;5002703;28;20201;-92
2023/10/06 10:58:45;;;;;;;18.83;16.90;;;14.40;93.50;;;;;;5000873;28;20228;-93
2023/10/06 11:01:24;;;;;;;20.95;15.75;;;14.40;93.70;;;;;;4995160;28;20189;-93
2023/10/06 11:04:18;;;;;;;30.27;18.70;;;14.50;93.80;;;;;;5004456;28;20547;-92
2023/10/06 11:06:48;;;;;;;20.63;18.42;;;14.50;93.60;;;;;;5002237;28;20162;-93
2023/10/06 11:09:26;;;;;;;25.67;18.63;;;14.50;93.90;;;;;;5003518;28;20181;-92
2023/10/06 11:11:55;;;;;;;16.30;14.35;;;14.50;94.00;;;;;;5002952;28;20174;-92
2023/10/06 11:14:23;;;;;;;17.92;14.70;;;14.40;94.10;;;;;;5000861;28;20206;-92
2023/10/06 11:16:49;;;;;;;19.03;14.50;;;14.40;94.10;;;;;;5002639;28;20197;-93
2023/10/06 11:19:15;;;;;;;19.63;14.73;;;14.50;94.30;;;;;;5002614;28;20197;-93
2023/10/06 11:21:44;;;;;;;17.80;15.27;;;14.50;94.30;;;;;;5006854;28;20580;-93
2023/10/06 11:24:10;;;;;;;17.10;14.20;;;14.50;94.40;;;;;;5007083;28;20197;-92
2023/10/06 11:26:36;;;;;;;16.10;14.40;;;14.40;94.30;;;;;;5007807;28;20179;-92
2023/10/06 11:29:02;;;;;;;16.77;15.02;;;14.40;94.20;;;;;;5005974;28;20618;-91
2023/10/06 11:31:29;;;;;;;15.85;14.13;;;14.50;94.40;;;;;;5006294;28;20174;-92
2023/10/06 11:33:56;;;;;;;16.58;14.48;;;14.40;94.20;;;;;;5008081;28;20171;-92
2023/10/06 11:36:22;;;;;;;18.20;14.43;;;14.50;94.20;;;;;;5008087;28;20182;-92
2023/10/06 11:38:48;;;;;;;17.13;14.05;;;14.50;94.20;;;;;;5007200;28;20273;-92
2023/10/06 11:41:23;;;;;;;17.83;15.23;;;14.50;94.20;;;;;;4999068;28;20194;-89
2023/10/06 11:43:55;;;;;;;18.60;15.35;;;14.60;94.20;;;;;;4996010;28;20178;-88
2023/10/06 11:46:21;;;;;;;19.98;15.50;;;14.60;94.30;;;;;;4993830;28;20189;-87
2023/10/06 11:48:47;;;;;;;23.10;15.35;;;14.70;94.20;;;;;;4995163;28;20174;-88
2023/10/06 11:51:13;;;;;;;24.40;15.68;;;14.70;94.20;;;;;;4993455;28;20174;-88
2023/10/06 11:53:40;;;;;;;16.98;14.80;;;14.70;94.10;;;;;;4995529;28;20177;-89
2023/10/06 11:56:13;;;;;;;21.77;15.52;;;14.70;94.10;;;;;;4995474;28;20292;-87
2023/10/06 11:58:40;;;;;;;21.23;15.73;;;14.80;93.80;;;;;;4995354;28;20216;-86
2023/10/06 12:01:25;;;;;;;24.85;15.63;;;14.80;93.70;;;;;;4993812;28;20659;-88
2023/10/06 12:03:51;;;;;;;24.77;15.73;;;14.80;93.70;;;;;;4994848;28;20164;-87
2023/10/06 12:06:16;;;;;;;25.17;15.70;;;14.80;93.60;;;;;;4994339;28;20539;-88
2023/10/06 12:08:45;;;;;;;27.38;15.15;;;14.80;93.50;;;;;;4993325;28;20182;-88
2023/10/06 12:11:14;;;;;;;21.77;15.63;;;14.80;93.40;;;;;;4995276;28;20177;-88
2023/10/06 12:13:40;;;;;;;22.10;14.82;;;14.90;93.40;;;;;;4993358;28;20636;-86
2023/10/06 12:16:13;;;;;;;26.00;17.05;;;14.90;93.30;;;;;;4994238;28;20178;-88
2023/10/06 12:18:39;;;;;;;20.10;14.15;;;15.00;93.20;;;;;;4994487;28;20197;-88
2023/10/06 12:21:06;;;;;;;24.45;16.35;;;15.10;92.80;;;;;;4994947;28;20197;-87
2023/10/06 12:23:32;;;;;;;17.83;15.45;;;15.20;92.80;;;;;;4993458;28;20193;-88
2023/10/06 12:25:58;;;;;;;21.02;17.10;;;15.20;92.60;;;;;;4992889;28;20198;-88
2023/10/06 12:28:25;;;;;;;17.95;15.50;;;15.30;92.50;;;;;;4994725;28;20185;-88
2023/10/06 12:30:52;;;;;;;17.20;15.35;;;15.30;92.40;;;;;;4995202;28;20185;-88
2023/10/06 12:33:17;;;;;;;20.95;15.65;;;15.30;92.20;;;;;;4994985;28;20552;-88
2023/10/06 12:35:43;;;;;;;20.17;15.77;;;15.40;92.10;;;;;;4993564;28;20197;-89
2023/10/06 12:38:09;;;;;;;30.25;15.38;;;15.50;92.20;;;;;;4994528;28;20193;-88
2023/10/06 12:40:34;;;;;;;23.05;14.82;;;15.50;92.00;;;;;;4993207;28;20202;-88